Time;durP1;ratioP1;P1;durP2;ratioP2;P2;SDS_P1;SDS_P2;PMS_P1;PMS_P2;Temp;Humidity;BMP_temperature;BMP_pressure;BME280_temperature;BME280_humidity;BME280_pressure;Samples;Min_cycle;Max_cycle;Signal;HPM_P1;HPM_P2
2023/08/23 00:02:25;;;;;;;;;;;27.70;61.60;;;;;;5058481;28;20020;-79
2023/08/23 00:04:52;;;;;;;;;;;27.60;61.70;;;;;;5062278;28;20006;-79
2023/08/23 00:07:18;;;;;;;;;;;27.60;61.80;;;;;;5063136;28;19979;-82
2023/08/23 00:09:45;;;;;;;;;;;27.50;61.80;;;;;;5064234;28;19982;-81
2023/08/23 00:12:12;;;;;;;;;;;27.60;62.10;;;;;;5064039;28;19980;-81
2023/08/23 00:14:40;;;;;;;;;;;27.50;62.10;;;;;;5066337;28;20105;-80
2023/08/23 00:17:06;;;;;;;;;;;27.40;62.10;;;;;;5062622;28;20319;-82
2023/08/23 00:19:33;;;;;;;;;;;27.40;62.30;;;;;;5067308;28;20364;-82
2023/08/23 00:21:59;;;;;;;;;;;27.40;62.50;;;;;;5067396;28;19982;-80
2023/08/23 00:24:26;;;;;;;;;;;27.40;62.50;;;;;;5067709;28;19976;-82
2023/08/23 00:26:54;;;;;;;;;;;27.30;62.50;;;;;;5070502;28;20014;-80
2023/08/23 00:29:21;;;;;;;;;;;27.30;62.60;;;;;;5068867;28;20622;-82
2023/08/23 00:31:49;;;;;;;;;;;27.30;62.60;;;;;;5068229;28;19975;-82
2023/08/23 00:34:15;;;;;;;;;;;27.20;62.70;;;;;;5065180;28;19980;-81
2023/08/23 00:36:42;;;;;;;;;;;27.20;62.80;;;;;;5062852;28;20003;-83
2023/08/23 00:39:08;;;;;;;;;;;27.20;62.80;;;;;;5066740;28;19984;-81
2023/08/23 00:41:37;;;;;;;;;;;27.10;62.80;;;;;;5068298;28;19984;-80
2023/08/23 00:44:04;;;;;;;;;;;27.10;62.90;;;;;;5067521;28;19975;-81
2023/08/23 00:46:30;;;;;;;;;;;27.10;63.10;;;;;;5067590;28;20000;-80
2023/08/23 00:48:58;;;;;;;;;;;27.00;63.00;;;;;;5066782;28;20581;-80
2023/08/23 00:51:25;;;;;;;;;;;27.00;63.10;;;;;;5065954;28;19976;-80
2023/08/23 00:53:52;;;;;;;;;;;27.00;63.30;;;;;;5065509;28;19976;-81
2023/08/23 00:56:18;;;;;;;;;;;27.00;63.30;;;;;;5063031;28;19995;-80
2023/08/23 00:58:45;;;;;;;;;;;26.90;63.40;;;;;;5066942;28;19979;-83
2023/08/23 01:01:11;;;;;;;;;;;26.90;63.50;;;;;;5064270;28;19995;-84
2023/08/23 01:03:38;;;;;;;;;;;26.90;63.60;;;;;;5064817;28;20099;-81
2023/08/23 01:06:14;;;;;;;;;;;26.80;63.60;;;;;;5061095;28;20003;-80
2023/08/23 01:08:45;;;;;;;;;;;26.80;63.70;;;;;;5066911;28;19983;-81
2023/08/23 01:11:30;;;;;;;;;;;26.70;63.70;;;;;;5066944;28;19976;-80
2023/08/23 01:14:00;;;;;;;;;;;26.70;63.70;;;;;;5065394;28;19984;-81
2023/08/23 01:16:28;;;;;;;;;;;26.70;64.00;;;;;;5064250;28;19999;-80
2023/08/23 01:18:55;;;;;;;;;;;26.70;64.20;;;;;;5065316;28;19994;-79
2023/08/23 01:21:26;;;;;;;;;;;26.60;64.10;;;;;;5064418;28;19972;-80
2023/08/23 01:23:54;;;;;;;;;;;26.60;64.10;;;;;;5060799;28;20326;-79
2023/08/23 01:26:21;;;;;;;;;;;26.60;64.10;;;;;;5061292;28;20006;-79
2023/08/23 01:28:50;;;;;;;;;;;26.50;64.30;;;;;;5065410;28;20010;-80
2023/08/23 01:31:17;;;;;;;;;;;26.50;64.30;;;;;;5060062;28;19996;-82
2023/08/23 01:33:47;;;;;;;;;;;26.50;64.50;;;;;;5064219;28;19987;-79
2023/08/23 01:36:17;;;;;;;;;;;26.50;64.50;;;;;;5062788;28;20006;-80
2023/08/23 01:38:45;;;;;;;;;;;26.40;64.50;;;;;;5061604;28;19980;-79
2023/08/23 01:41:31;;;;;;;;;;;26.40;64.60;;;;;;5061799;28;19979;-80
2023/08/23 01:43:59;;;;;;;;;;;26.40;64.50;;;;;;5062680;28;19985;-80
2023/08/23 01:46:26;;;;;;;;;;;26.30;64.50;;;;;;5063746;28;19995;-80
2023/08/23 01:48:53;;;;;;;;;;;26.30;64.70;;;;;;5065708;28;20199;-79
2023/08/23 01:51:19;;;;;;;;;;;26.30;64.70;;;;;;5059501;28;19976;-81
2023/08/23 01:53:46;;;;;;;;;;;26.20;64.70;;;;;;5066581;28;20436;-80
2023/08/23 01:56:12;;;;;;;;;;;26.20;64.70;;;;;;5066523;28;19997;-79
2023/08/23 01:58:39;;;;;;;;;;;26.20;64.70;;;;;;5062418;28;19991;-79
2023/08/23 02:01:07;;;;;;;;;;;26.10;64.70;;;;;;5063043;28;19992;-79
2023/08/23 02:03:33;;;;;;;;;;;26.10;64.80;;;;;;5064824;28;19991;-80
2023/08/23 02:06:00;;;;;;;;;;;26.10;64.90;;;;;;5065860;28;20065;-79
2023/08/23 02:08:26;;;;;;;;;;;26.00;65.00;;;;;;5062838;28;19982;-80
2023/08/23 02:10:53;;;;;;;;;;;26.00;65.00;;;;;;5063972;28;19972;-80
2023/08/23 02:13:19;;;;;;;;;;;26.00;65.10;;;;;;5063756;28;20480;-80
2023/08/23 02:15:46;;;;;;;;;;;25.90;65.00;;;;;;5063491;28;19999;-78
2023/08/23 02:18:14;;;;;;;;;;;25.90;65.00;;;;;;5066387;28;20726;-81
2023/08/23 02:20:40;;;;;;;;;;;25.90;65.10;;;;;;5060481;28;19979;-80
2023/08/23 02:23:07;;;;;;;;;;;25.90;65.10;;;;;;5063416;28;20025;-80
2023/08/23 02:25:33;;;;;;;;;;;25.90;65.20;;;;;;5065419;28;19991;-80
2023/08/23 02:28:00;;;;;;;;;;;25.80;65.20;;;;;;5065319;28;19987;-80
2023/08/23 02:30:26;;;;;;;;;;;25.80;65.30;;;;;;5068075;28;19983;-81
2023/08/23 02:32:53;;;;;;;;;;;25.70;65.30;;;;;;5072209;28;20043;-81
2023/08/23 02:35:21;;;;;;;;;;;25.70;65.30;;;;;;5070809;28;20003;-81
2023/08/23 02:37:47;;;;;;;;;;;25.70;65.40;;;;;;5067409;28;19975;-80
2023/08/23 02:40:14;;;;;;;;;;;25.70;65.50;;;;;;5064930;28;19979;-80
2023/08/23 02:42:40;;;;;;;;;;;25.70;65.60;;;;;;5061447;28;19979;-79
2023/08/23 02:45:07;;;;;;;;;;;25.60;65.60;;;;;;5065560;28;19991;-81
2023/08/23 02:47:34;;;;;;;;;;;25.60;65.70;;;;;;5065978;28;19988;-82
2023/08/23 02:50:00;;;;;;;;;;;25.60;65.80;;;;;;5065772;28;19979;-79
2023/08/23 02:52:28;;;;;;;;;;;25.60;65.80;;;;;;5066377;28;19979;-79
2023/08/23 02:54:55;;;;;;;;;;;25.50;65.90;;;;;;5063380;28;19988;-79
2023/08/23 02:57:21;;;;;;;;;;;25.50;66.00;;;;;;5060832;28;20203;-80
2023/08/23 02:59:48;;;;;;;;;;;25.50;66.00;;;;;;5058323;28;19976;-79
2023/08/23 03:02:14;;;;;;;;;;;25.40;66.00;;;;;;5062325;28;20002;-81
2023/08/23 03:04:41;;;;;;;;;;;25.40;66.80;;;;;;5065700;28;20047;-80
2023/08/23 03:07:07;;;;;;;;;;;25.40;66.60;;;;;;5056664;28;19979;-79
2023/08/23 03:09:35;;;;;;;;;;;25.30;66.20;;;;;;5060205;28;19979;-80
2023/08/23 03:12:02;;;;;;;;;;;25.30;66.20;;;;;;5064846;28;19971;-79
2023/08/23 03:14:29;;;;;;;;;;;25.30;66.40;;;;;;5061934;28;20454;-77
2023/08/23 03:16:56;;;;;;;;;;;25.30;66.50;;;;;;5063711;28;19995;-79
2023/08/23 03:19:22;;;;;;;;;;;25.30;66.60;;;;;;5062174;28;19980;-80
2023/08/23 03:21:49;;;;;;;;;;;25.20;66.50;;;;;;5059139;28;19986;-79
2023/08/23 03:24:15;;;;;;;;;;;25.20;66.60;;;;;;5059833;28;19991;-80
2023/08/23 03:26:43;;;;;;;;;;;25.20;66.80;;;;;;5063989;28;20038;-80
2023/08/23 03:29:10;;;;;;;;;;;25.10;66.80;;;;;;5057907;28;20003;-81
2023/08/23 03:31:36;;;;;;;;;;;25.10;66.80;;;;;;5060725;28;20034;-79
2023/08/23 03:34:03;;;;;;;;;;;25.10;66.90;;;;;;5062008;28;19975;-80
2023/08/23 03:36:29;;;;;;;;;;;25.10;67.00;;;;;;5058159;28;19999;-79
2023/08/23 03:38:56;;;;;;;;;;;25.10;67.10;;;;;;5059096;28;20001;-80
2023/08/23 03:41:22;;;;;;;;;;;25.10;67.10;;;;;;5062892;28;20653;-80
2023/08/23 03:43:50;;;;;;;;;;;25.00;67.10;;;;;;5058937;28;19983;-79
2023/08/23 03:46:17;;;;;;;;;;;25.00;67.30;;;;;;5061054;28;19996;-80
2023/08/23 03:48:43;;;;;;;;;;;24.90;67.30;;;;;;5061234;28;19976;-79
2023/08/23 03:51:10;;;;;;;;;;;24.90;67.40;;;;;;5059870;28;19984;-80
2023/08/23 03:53:37;;;;;;;;;;;24.90;67.40;;;;;;5063385;28;19975;-79
2023/08/23 03:56:03;;;;;;;;;;;24.90;67.50;;;;;;5067700;28;20903;-81
2023/08/23 03:58:30;;;;;;;;;;;24.80;67.50;;;;;;5065745;28;19998;-82
2023/08/23 04:00:58;;;;;;;;;;;24.80;67.60;;;;;;5061415;28;19991;-79
2023/08/23 04:03:24;;;;;;;;;;;24.80;67.70;;;;;;5067001;28;19975;-82
2023/08/23 04:05:51;;;;;;;;;;;24.80;67.80;;;;;;5066321;28;19995;-80
2023/08/23 04:08:17;;;;;;;;;;;24.70;67.80;;;;;;5067431;28;20015;-80
2023/08/23 04:10:46;;;;;;;;;;;24.70;67.90;;;;;;5065554;28;20514;-81
2023/08/23 04:13:12;;;;;;;;;;;24.70;68.00;;;;;;5068021;28;19983;-80
2023/08/23 04:15:41;;;;;;;;;;;24.70;68.00;;;;;;5065543;28;20006;-79
2023/08/23 04:18:09;;;;;;;;;;;24.70;68.10;;;;;;5072353;28;19994;-80
2023/08/23 04:20:37;;;;;;;;;;;24.60;68.20;;;;;;5067288;28;19980;-79
2023/08/23 04:23:04;;;;;;;;;;;24.60;68.20;;;;;;5070282;28;20451;-80
2023/08/23 04:25:30;;;;;;;;;;;24.50;68.20;;;;;;5066922;28;20771;-80
2023/08/23 04:27:57;;;;;;;;;;;24.50;68.30;;;;;;5064596;28;19978;-80
2023/08/23 04:30:23;;;;;;;;;;;24.50;68.30;;;;;;5062498;28;19976;-80
2023/08/23 04:32:50;;;;;;;;;;;24.50;68.40;;;;;;5063616;28;19987;-80
2023/08/23 04:35:18;;;;;;;;;;;24.40;68.50;;;;;;5067511;28;20018;-79
2023/08/23 04:37:44;;;;;;;;;;;24.40;68.50;;;;;;5064460;28;20006;-80
2023/08/23 04:40:11;;;;;;;;;;;24.30;68.40;;;;;;5066482;28;19998;-78
2023/08/23 04:42:39;;;;;;;;;;;24.40;68.60;;;;;;5062407;28;20076;-80
2023/08/23 04:45:06;;;;;;;;;;;24.30;68.60;;;;;;5065424;28;19995;-80
2023/08/23 04:47:33;;;;;;;;;;;24.30;68.60;;;;;;5063756;28;20361;-79
2023/08/23 04:49:59;;;;;;;;;;;24.30;68.70;;;;;;5062775;28;19983;-76
2023/08/23 04:52:28;;;;;;;;;;;24.30;68.50;;;;;;5061359;28;19986;-79
2023/08/23 04:54:54;;;;;;;;;;;23.90;69.70;;;;;;5060609;28;20000;-79
2023/08/23 04:57:21;;;;;;;;;;;23.50;70.90;;;;;;5061669;28;20521;-79
2023/08/23 04:59:47;;;;;;;;;;;23.40;71.10;;;;;;5066535;28;20390;-80
2023/08/23 05:02:14;;;;;;;;;;;23.40;71.30;;;;;;5062879;28;20021;-78
2023/08/23 05:04:40;;;;;;;;;;;23.40;71.30;;;;;;5060912;28;19932;-81
2023/08/23 05:07:07;;;;;;;;;;;23.40;71.30;;;;;;5062241;28;19935;-79
2023/08/23 05:09:35;;;;;;;;;;;23.40;71.30;;;;;;5065474;28;20588;-79
2023/08/23 05:12:01;;;;;;;;;;;23.40;71.20;;;;;;5064084;28;20390;-79
2023/08/23 05:14:28;;;;;;;;;;;23.50;71.10;;;;;;5062920;28;19928;-79
2023/08/23 05:16:54;;;;;;;;;;;23.50;71.10;;;;;;5059269;28;20702;-80
2023/08/23 05:19:21;;;;;;;;;;;23.50;71.10;;;;;;5064987;28;19991;-79
2023/08/23 05:21:48;;;;;;;;;;;23.50;71.10;;;;;;5063076;28;19932;-79
2023/08/23 05:24:14;;;;;;;;;;;23.50;71.20;;;;;;5061539;28;19925;-78
2023/08/23 05:26:45;;;;;;;;;;;23.50;71.20;;;;;;5062836;28;20006;-78
2023/08/23 05:29:12;;;;;;;;;;;23.50;71.20;;;;;;5063293;28;19939;-81
2023/08/23 05:31:38;;;;;;;;;;;23.50;71.30;;;;;;5065065;28;19952;-80
2023/08/23 05:34:05;;;;;;;;;;;23.40;72.10;;;;;;5069352;28;19928;-80
2023/08/23 05:36:31;;;;;;;;;;;23.40;72.10;;;;;;5067999;28;19932;-79
2023/08/23 05:39:02;;;;;;;;;;;23.40;71.40;;;;;;5069192;28;19936;-82
2023/08/23 05:41:29;;;;;;;;;;;23.50;71.70;;;;;;5066229;28;19929;-83
2023/08/23 05:43:56;;;;;;;;;;;23.40;71.70;;;;;;5065195;28;19935;-79
2023/08/23 05:46:23;;;;;;;;;;;23.40;71.70;;;;;;5067454;28;19932;-81
2023/08/23 05:48:50;;;;;;;;;;;23.40;71.90;;;;;;5057696;28;19968;-80
2023/08/23 05:51:16;;;;;;;;;;;23.40;72.00;;;;;;5063934;28;20689;-79
2023/08/23 05:53:43;;;;;;;;;;;23.40;72.10;;;;;;5068531;28;19928;-81
2023/08/23 05:56:10;;;;;;;;;;;23.40;72.20;;;;;;5066501;28;19932;-81
2023/08/23 05:58:36;;;;;;;;;;;23.40;72.30;;;;;;5063706;28;20015;-80
2023/08/23 06:01:04;;;;;;;;;;;23.40;72.40;;;;;;5057484;28;20729;-81
2023/08/23 06:03:30;;;;;;;;;;;23.30;72.40;;;;;;5060814;28;20393;-79
2023/08/23 06:05:57;;;;;;;;;;;23.30;72.50;;;;;;5060503;28;19928;-80
2023/08/23 06:08:24;;;;;;;;;;;23.30;72.60;;;;;;5065020;28;19928;-80
2023/08/23 06:10:50;;;;;;;;;;;23.30;72.70;;;;;;5063164;28;19928;-79
2023/08/23 06:13:17;;;;;;;;;;;23.30;72.80;;;;;;5061455;28;20011;-80
2023/08/23 06:15:44;;;;;;;;;;;23.30;72.90;;;;;;5060943;28;19932;-79
2023/08/23 06:18:12;;;;;;;;;;;23.30;73.00;;;;;;5062436;28;19939;-81
2023/08/23 06:20:39;;;;;;;;;;;23.20;73.00;;;;;;5059324;28;19952;-80
2023/08/23 06:23:06;;;;;;;;;;;23.30;73.20;;;;;;5058901;28;19932;-79
2023/08/23 06:25:32;;;;;;;;;;;23.20;73.20;;;;;;5061584;28;19929;-80
2023/08/23 06:27:59;;;;;;;;;;;23.20;73.30;;;;;;5063157;28;19936;-82
2023/08/23 06:30:25;;;;;;;;;;;23.20;73.30;;;;;;5065021;28;20362;-80
2023/08/23 06:32:52;;;;;;;;;;;23.20;73.30;;;;;;5058915;28;19928;-80
2023/08/23 06:35:21;;;;;;;;;;;23.20;73.30;;;;;;5060776;28;19928;-79
2023/08/23 06:37:48;;;;;;;;;;;23.20;73.40;;;;;;5060018;28;19979;-80
2023/08/23 06:40:16;;;;;;;;;;;23.20;73.40;;;;;;5062922;28;19935;-78
2023/08/23 06:42:42;;;;;;;;;;;23.20;73.40;;;;;;5062133;28;19939;-80
2023/08/23 06:45:10;;;;;;;;;;;23.20;73.40;;;;;;5064155;28;19928;-79
2023/08/23 06:47:37;;;;;;;;;;;23.20;73.50;;;;;;5063309;28;19971;-78
2023/08/23 06:50:04;;;;;;;;;;;23.20;73.50;;;;;;5063312;28;19962;-79
2023/08/23 06:52:32;;;;;;;;;;;23.20;73.60;;;;;;5062137;28;19940;-79
2023/08/23 06:54:58;;;;;;;;;;;23.20;73.60;;;;;;5061705;28;19928;-80
2023/08/23 06:57:28;;;;;;;;;;;23.20;73.60;;;;;;5057234;28;19925;-79
2023/08/23 06:59:56;;;;;;;;;;;23.20;73.60;;;;;;5057438;28;19950;-79
2023/08/23 07:02:22;;;;;;;;;;;23.20;73.60;;;;;;5065009;28;19970;-77
2023/08/23 07:04:50;;;;;;;;;;;23.20;73.60;;;;;;5062221;28;19925;-80
2023/08/23 07:07:17;;;;;;;;;;;23.20;73.60;;;;;;5062733;28;20350;-79
2023/08/23 07:09:45;;;;;;;;;;;23.20;73.50;;;;;;5061603;28;20059;-79
2023/08/23 07:12:11;;;;;;;;;;;23.20;73.50;;;;;;5063058;28;20015;-79
2023/08/23 07:14:38;;;;;;;;;;;23.20;73.50;;;;;;5061646;28;19932;-79
2023/08/23 07:17:04;;;;;;;;;;;23.20;73.50;;;;;;5059377;28;19936;-78
2023/08/23 07:19:31;;;;;;;;;;;23.20;73.50;;;;;;5061683;28;19940;-79
2023/08/23 07:21:58;;;;;;;;;;;23.30;73.50;;;;;;5058873;28;20525;-79
2023/08/23 07:24:25;;;;;;;;;;;23.20;73.40;;;;;;5056308;28;19936;-79
2023/08/23 07:26:55;;;;;;;;;;;23.20;73.40;;;;;;5060944;28;19940;-79
2023/08/23 07:29:21;;;;;;;;;;;23.30;73.40;;;;;;5062944;28;20012;-79
2023/08/23 07:31:48;;;;;;;;;;;23.30;73.40;;;;;;5060869;28;19962;-79
2023/08/23 07:34:15;;;;;;;;;;;23.30;73.40;;;;;;5063090;28;19935;-79
2023/08/23 07:36:41;;;;;;;;;;;23.30;73.40;;;;;;5065584;28;20058;-80
2023/08/23 07:39:08;;;;;;;;;;;23.30;73.30;;;;;;5066411;28;19928;-79
2023/08/23 07:41:35;;;;;;;;;;;23.30;73.50;;;;;;5063699;28;19932;-81
2023/08/23 07:44:02;;;;;;;;;;;23.30;73.50;;;;;;5061994;28;20255;-78
2023/08/23 07:46:29;;;;;;;;;;;23.30;73.40;;;;;;5060074;28;20482;-79
2023/08/23 07:48:56;;;;;;;;;;;23.30;73.30;;;;;;5065724;28;19928;-78
2023/08/23 07:51:22;;;;;;;;;;;23.30;73.50;;;;;;5062006;28;19928;-78
2023/08/23 07:53:49;;;;;;;;;;;23.40;73.50;;;;;;5062275;28;20029;-77
2023/08/23 07:56:17;;;;;;;;;;;23.40;73.40;;;;;;5051423;28;20405;-78
2023/08/23 07:58:44;;;;;;;;;;;23.40;73.30;;;;;;5060435;28;19975;-76
2023/08/23 08:01:12;;;;;;;;;;;23.40;73.40;;;;;;5056948;28;19929;-77
2023/08/23 08:03:39;;;;;;;;;;;23.40;73.50;;;;;;5061977;28;19940;-75
2023/08/23 08:06:06;;;;;;;;;;;23.40;73.50;;;;;;5064909;28;19928;-76
2023/08/23 08:08:33;;;;;;;;;;;23.40;73.40;;;;;;5064108;28;19935;-75
2023/08/23 08:10:59;;;;;;;;;;;23.50;73.50;;;;;;5062092;28;19929;-76
2023/08/23 08:13:26;;;;;;;;;;;23.50;73.40;;;;;;5057560;28;19944;-77
2023/08/23 08:15:53;;;;;;;;;;;23.50;73.40;;;;;;5059760;28;19929;-76
2023/08/23 08:18:20;;;;;;;;;;;23.50;73.40;;;;;;5059994;28;19928;-77
2023/08/23 08:20:47;;;;;;;;;;;23.50;73.50;;;;;;5067472;28;19936;-77
2023/08/23 08:23:14;;;;;;;;;;;23.50;73.60;;;;;;5066584;28;19936;-77
2023/08/23 08:25:41;;;;;;;;;;;23.50;73.50;;;;;;5062720;28;19932;-78
2023/08/23 08:28:07;;;;;;;;;;;23.60;73.40;;;;;;5060352;28;19928;-77
2023/08/23 08:30:34;;;;;;;;;;;23.60;73.40;;;;;;5058774;28;19932;-75
2023/08/23 08:33:01;;;;;;;;;;;23.60;73.40;;;;;;5065452;28;19932;-77
2023/08/23 08:35:29;;;;;;;;;;;23.60;73.20;;;;;;5065907;28;19928;-77
2023/08/23 08:37:55;;;;;;;;;;;23.70;73.30;;;;;;5064724;28;19967;-78
2023/08/23 08:40:22;;;;;;;;;;;23.70;73.30;;;;;;5058021;28;20298;-77
2023/08/23 08:42:49;;;;;;;;;;;23.70;73.30;;;;;;5065095;28;19976;-77
2023/08/23 08:45:16;;;;;;;;;;;23.70;73.20;;;;;;5062704;28;19932;-78
2023/08/23 08:47:43;;;;;;;;;;;23.80;73.10;;;;;;5061829;28;20561;-78
2023/08/23 08:50:09;;;;;;;;;;;23.80;73.10;;;;;;5060200;28;20011;-77
2023/08/23 08:52:39;;;;;;;;;;;23.80;73.10;;;;;;5062436;28;19948;-78
2023/08/23 08:55:06;;;;;;;;;;;23.90;73.00;;;;;;5058836;28;19924;-77
2023/08/23 08:57:33;;;;;;;;;;;23.90;72.80;;;;;;5062860;28;19924;-78
2023/08/23 09:00:00;;;;;;;;;;;24.00;72.70;;;;;;5065812;28;20555;-78
2023/08/23 09:02:27;;;;;;;;;;;24.00;72.60;;;;;;5059070;28;20305;-77
2023/08/23 09:04:54;;;;;;;;;;;24.00;73.20;;;;;;5057081;28;19929;-77
2023/08/23 09:07:21;;;;;;;;;;;24.10;72.30;;;;;;5063087;28;19932;-77
2023/08/23 09:09:49;;;;;;;;;;;24.10;72.20;;;;;;5061909;28;20476;-78
2023/08/23 09:12:16;;;;;;;;;;;24.20;72.00;;;;;;5061464;28;19928;-78
2023/08/23 09:14:48;;;;;;;;;;;24.20;72.00;;;;;;5054334;28;19929;-77
2023/08/23 09:17:15;;;;;;;;;;;24.30;71.80;;;;;;5057838;28;19924;-77
2023/08/23 09:19:41;;;;;;;;;;;24.40;71.60;;;;;;5057243;28;19943;-78
2023/08/23 09:22:08;;;;;;;;;;;24.40;71.60;;;;;;5058551;28;19935;-79
2023/08/23 09:24:35;;;;;;;;;;;24.50;71.40;;;;;;5058152;28;19935;-78
2023/08/23 09:27:03;;;;;;;;;;;24.50;71.20;;;;;;5056294;28;19933;-79
2023/08/23 09:29:29;;;;;;;;;;;24.60;71.10;;;;;;5059875;28;20398;-79
2023/08/23 09:31:59;;;;;;;;;;;24.70;70.80;;;;;;5059759;28;20390;-78
2023/08/23 09:34:25;;;;;;;;;;;24.70;70.50;;;;;;5057827;28;20502;-78
2023/08/23 09:36:52;;;;;;;;;;;24.80;70.40;;;;;;5056326;28;19937;-78
2023/08/23 09:39:19;;;;;;;;;;;24.80;70.20;;;;;;5053112;28;19967;-79
2023/08/23 09:41:46;;;;;;;;;;;24.90;70.10;;;;;;5059766;28;19934;-78
2023/08/23 09:44:14;;;;;;;;;;;24.90;69.80;;;;;;5057943;28;19932;-79
2023/08/23 09:46:41;;;;;;;;;;;25.00;69.70;;;;;;5058456;28;19932;-78
2023/08/23 09:49:08;;;;;;;;;;;25.10;69.50;;;;;;5056925;28;19928;-77
2023/08/23 09:51:35;;;;;;;;;;;25.20;69.50;;;;;;5060883;28;19928;-78
2023/08/23 09:54:04;;;;;;;;;;;25.20;69.10;;;;;;5055011;28;19964;-79
2023/08/23 09:56:30;;;;;;;;;;;25.30;68.90;;;;;;5058262;28;20417;-78
2023/08/23 09:58:57;;;;;;;;;;;25.30;68.50;;;;;;5060751;28;20564;-79
2023/08/23 10:01:26;;;;;;;;;;;25.40;68.30;;;;;;5059321;28;20017;-79
2023/08/23 10:03:52;;;;;;;;;;;25.50;68.30;;;;;;5062687;28;19931;-79
2023/08/23 10:06:19;;;;;;;;;;;25.50;68.20;;;;;;5056512;28;19928;-78
2023/08/23 10:08:46;;;;;;;;;;;25.50;68.10;;;;;;5056958;28;19932;-80
2023/08/23 10:11:13;;;;;;;;;;;25.60;68.10;;;;;;5060206;28;20495;-78
2023/08/23 10:13:40;;;;;;;;;;;25.60;67.60;;;;;;5061566;28;19936;-79
2023/08/23 10:16:07;;;;;;;;;;;25.70;67.40;;;;;;5059018;28;20306;-77
2023/08/23 10:18:36;;;;;;;;;;;25.70;67.20;;;;;;5057622;28;19928;-79
2023/08/23 10:21:03;;;;;;;;;;;25.80;67.00;;;;;;5056200;28;20011;-77
2023/08/23 10:23:33;;;;;;;;;;;25.80;66.90;;;;;;5054268;28;20009;-79
2023/08/23 10:26:01;;;;;;;;;;;25.90;66.40;;;;;;5057199;28;19932;-78
2023/08/23 10:28:28;;;;;;;;;;;26.00;66.20;;;;;;5054623;28;20558;-78
2023/08/23 10:30:58;;;;;;;;;;;26.00;65.50;;;;;;5055543;28;19939;-79
2023/08/23 10:33:25;;;;;;;;;;;26.10;65.70;;;;;;5059766;28;19936;-79
2023/08/23 10:35:54;;;;;;;;;;;26.10;65.50;;;;;;5056589;28;19932;-78
2023/08/23 10:38:22;;;;;;;;;;;26.20;65.20;;;;;;5057525;28;20359;-79
2023/08/23 10:40:48;;;;;;;;;;;26.30;64.60;;;;;;5059437;28;19936;-79
2023/08/23 10:43:15;;;;;;;;;;;26.30;64.80;;;;;;5058672;28;20559;-78
2023/08/23 10:45:48;;;;;;;;;;;26.40;64.30;;;;;;5051454;28;19924;-78
2023/08/23 10:48:15;;;;;;;;;;;26.40;64.30;;;;;;5052179;28;19939;-78
2023/08/23 10:50:42;;;;;;;;;;;26.50;64.40;;;;;;5054638;28;19932;-77
2023/08/23 10:53:10;;;;;;;;;;;26.50;64.30;;;;;;5060292;28;20018;-78
2023/08/23 10:55:37;;;;;;;;;;;26.60;64.40;;;;;;5058244;28;19963;-78
2023/08/23 10:58:04;;;;;;;;;;;26.70;64.00;;;;;;5055938;28;20023;-77
2023/08/23 11:00:31;;;;;;;;;;;26.70;63.70;;;;;;5059929;28;19936;-78
2023/08/23 11:02:57;;;;;;;;;;;26.80;63.70;;;;;;5056733;28;19928;-77
2023/08/23 11:05:24;;;;;;;;;;;26.90;63.50;;;;;;5054142;28;19940;-77
2023/08/23 11:07:50;;;;;;;;;;;26.90;63.20;;;;;;5058339;28;19936;-79
2023/08/23 11:10:19;;;;;;;;;;;27.00;63.10;;;;;;5057410;28;19947;-77
2023/08/23 11:12:46;;;;;;;;;;;27.10;63.00;;;;;;5055575;28;19928;-77
2023/08/23 11:15:13;;;;;;;;;;;27.10;62.80;;;;;;5054422;28;19936;-79
2023/08/23 11:17:41;;;;;;;;;;;27.20;62.50;;;;;;5055854;28;21442;-76
2023/08/23 11:20:10;;;;;;;;;;;27.20;61.90;;;;;;5058321;28;19932;-76
2023/08/23 11:22:36;;;;;;;;;;;27.30;61.60;;;;;;5054485;28;19934;-78
2023/08/23 11:25:03;;;;;;;;;;;27.30;61.30;;;;;;5057127;28;19935;-77
2023/08/23 11:27:31;;;;;;;;;;;27.40;61.60;;;;;;5057689;28;20014;-78
2023/08/23 11:29:58;;;;;;;;;;;27.50;61.20;;;;;;5058294;28;19936;-78
2023/08/23 11:32:25;;;;;;;;;;;27.50;60.50;;;;;;5056864;28;20398;-78
2023/08/23 11:34:53;;;;;;;;;;;27.60;60.00;;;;;;5051991;28;19929;-79
2023/08/23 11:37:19;;;;;;;;;;;27.70;60.40;;;;;;5055203;28;20480;-76
2023/08/23 11:39:55;;;;;;;;;;;27.80;60.40;;;;;;5057423;28;19928;-76
2023/08/23 11:42:21;;;;;;;;;;;27.80;60.40;;;;;;5052230;28;19932;-77
2023/08/23 11:44:49;;;;;;;;;;;27.90;60.30;;;;;;5058261;28;19928;-78
2023/08/23 11:47:16;;;;;;;;;;;27.90;60.00;;;;;;5057397;28;19935;-78
2023/08/23 11:49:42;;;;;;;;;;;28.00;59.80;;;;;;5053010;28;19939;-77
2023/08/23 11:52:10;;;;;;;;;;;28.00;59.60;;;;;;5055027;28;19933;-77
2023/08/23 11:54:40;;;;;;;;;;;28.10;59.80;;;;;;5055187;28;19932;-77
2023/08/23 11:57:07;;;;;;;;;;;28.10;59.40;;;;;;5058565;28;19959;-77
2023/08/23 11:59:33;;;;;;;;;;;28.20;59.40;;;;;;5048672;28;19932;-77
2023/08/23 12:02:01;;;;;;;;;;;28.20;59.50;;;;;;5058979;28;19947;-77
2023/08/23 12:04:28;;;;;;;;;;;28.30;59.40;;;;;;5054822;28;19924;-78
2023/08/23 12:06:55;;;;;;;;;;;28.40;59.40;;;;;;5052772;28;19955;-76
2023/08/23 12:09:22;;;;;;;;;;;28.40;59.30;;;;;;5057894;28;19935;-77
2023/08/23 12:11:49;;;;;;;;;;;28.50;59.50;;;;;;5055899;28;19936;-77
2023/08/23 12:14:15;;;;;;;;;;;28.60;59.20;;;;;;5051473;28;19929;-77
2023/08/23 12:16:42;;;;;;;;;;;28.60;59.20;;;;;;5057063;28;19932;-78
2023/08/23 12:19:10;;;;;;;;;;;28.60;59.10;;;;;;5063899;28;19936;-78
2023/08/23 12:21:36;;;;;;;;;;;28.70;59.00;;;;;;5059146;28;19929;-79
2023/08/23 12:24:03;;;;;;;;;;;28.70;58.60;;;;;;5059300;28;20595;-77
2023/08/23 12:26:30;;;;;;;;;;;28.80;58.50;;;;;;5059824;28;19975;-79
2023/08/23 12:28:56;;;;;;;;;;;28.80;58.70;;;;;;5063189;28;19928;-79
2023/08/23 12:31:23;;;;;;;;;;;28.90;58.70;;;;;;5058681;28;20551;-77
2023/08/23 12:33:49;;;;;;;;;;;28.90;57.40;;;;;;5059594;28;19936;-77
2023/08/23 12:36:17;;;;;;;;;;;29.00;57.50;;;;;;5065266;28;19933;-78
2023/08/23 12:38:44;;;;;;;;;;;28.90;57.30;;;;;;5060511;28;19932;-78
2023/08/23 12:41:10;;;;;;;;;;;29.00;57.50;;;;;;5066536;28;19982;-77
2023/08/23 12:43:37;;;;;;;;;;;29.10;57.40;;;;;;5062245;28;19932;-78
2023/08/23 12:46:03;;;;;;;;;;;29.20;57.70;;;;;;5060777;28;20432;-77
2023/08/23 12:48:30;;;;;;;;;;;29.20;57.40;;;;;;5060714;28;19936;-78
2023/08/23 12:50:56;;;;;;;;;;;29.30;56.80;;;;;;5056371;28;19932;-78
2023/08/23 12:53:24;;;;;;;;;;;29.30;56.70;;;;;;5067703;28;19935;-78
2023/08/23 12:55:51;;;;;;;;;;;29.40;56.70;;;;;;5059549;28;19928;-77
2023/08/23 12:58:18;;;;;;;;;;;29.40;56.00;;;;;;5063264;28;20133;-78
2023/08/23 13:00:44;;;;;;;;;;;29.40;56.20;;;;;;5058243;28;19932;-79
2023/08/23 13:03:11;;;;;;;;;;;29.50;56.50;;;;;;5057851;28;19936;-78
2023/08/23 13:05:37;;;;;;;;;;;29.50;55.60;;;;;;5062535;28;19928;-78
2023/08/23 13:08:04;;;;;;;;;;;29.60;55.00;;;;;;5064678;28;19936;-78
2023/08/23 13:10:32;;;;;;;;;;;29.60;55.30;;;;;;5063027;28;20023;-79
2023/08/23 13:12:59;;;;;;;;;;;29.60;55.20;;;;;;5063438;28;19935;-79
2023/08/23 13:15:26;;;;;;;;;;;29.70;56.50;;;;;;5059209;28;20664;-80
2023/08/23 13:17:54;;;;;;;;;;;29.70;56.00;;;;;;5059228;28;20317;-78
2023/08/23 13:20:20;;;;;;;;;;;29.80;55.80;;;;;;5066176;28;19972;-79
2023/08/23 13:22:47;;;;;;;;;;;29.80;55.30;;;;;;5061452;28;19940;-78
2023/08/23 13:25:13;;;;;;;;;;;29.90;54.60;;;;;;5060099;28;19928;-77
2023/08/23 13:27:41;;;;;;;;;;;29.90;54.60;;;;;;5059240;28;19935;-79
2023/08/23 13:30:09;;;;;;;;;;;29.90;52.90;;;;;;5055761;28;19924;-78
2023/08/23 13:32:35;;;;;;;;;;;30.00;54.70;;;;;;5063952;28;19965;-80
2023/08/23 13:35:03;;;;;;;;;;;30.00;54.60;;;;;;5064909;28;19932;-78
2023/08/23 13:37:29;;;;;;;;;;;30.00;53.50;;;;;;5061167;28;19928;-78
2023/08/23 13:39:56;;;;;;;;;;;30.10;54.10;;;;;;5063816;28;19935;-79
2023/08/23 13:42:22;;;;;;;;;;;30.10;54.30;;;;;;5061240;28;19929;-79
2023/08/23 13:44:50;;;;;;;;;;;30.10;54.90;;;;;;5061401;28;19939;-78
2023/08/23 13:47:17;;;;;;;;;;;30.20;54.10;;;;;;5059928;28;20758;-78
2023/08/23 13:49:43;;;;;;;;;;;30.20;54.80;;;;;;5061299;28;19928;-80
2023/08/23 13:52:10;;;;;;;;;;;30.20;52.60;;;;;;5061470;28;19932;-77
2023/08/23 13:54:36;;;;;;;;;;;30.30;53.70;;;;;;5057695;28;20420;-79
2023/08/23 13:57:04;;;;;;;;;;;30.30;54.50;;;;;;5064710;28;19928;-79
2023/08/23 13:59:31;;;;;;;;;;;30.40;54.30;;;;;;5062419;28;19928;-78
2023/08/23 14:01:58;;;;;;;;;;;30.40;54.00;;;;;;5062304;28;19929;-80
2023/08/23 14:04:25;;;;;;;;;;;30.40;52.50;;;;;;5062132;28;19928;-79
2023/08/23 14:06:51;;;;;;;;;;;30.40;52.90;;;;;;5063086;28;19933;-79
2023/08/23 14:09:18;;;;;;;;;;;30.40;53.50;;;;;;5059260;28;19933;-77
2023/08/23 14:11:52;;;;;;;;;;;30.50;54.00;;;;;;5057824;28;19928;-79
2023/08/23 14:14:19;;;;;;;;;;;30.50;51.50;;;;;;5062282;28;19932;-78
2023/08/23 14:16:45;;;;;;;;;;;30.50;53.30;;;;;;5058244;28;19932;-79